createdAt,value
2023-05-24T00:01:26.855Z,97854.13
2023-05-24T00:04:03.121Z,97859.75
2023-05-24T00:06:35.881Z,97882.28
2023-05-24T00:09:06.765Z,97908.88
2023-05-24T00:11:36.454Z,97919.19
2023-05-24T00:14:05.716Z,97926.03
2023-05-24T00:16:36.806Z,97922.84
2023-05-24T00:19:06.251Z,97897.50
2023-05-24T00:21:37.946Z,97889.97
2023-05-24T00:24:07.675Z,97892.03
2023-05-24T00:26:37.124Z,97909.72
2023-05-24T00:29:07.133Z,97913.41
2023-05-24T00:31:36.752Z,97906.41
2023-05-24T00:34:06.303Z,97894.91
2023-05-24T00:36:35.613Z,97889.03
2023-05-24T00:39:05.990Z,97897.50
2023-05-24T00:41:36.493Z,97902.16
2023-05-24T00:44:05.923Z,97915.91
2023-05-24T00:46:36.616Z,97911.16
2023-05-24T00:49:06.202Z,97907.69
2023-05-24T00:51:36.196Z,97914.44
2023-05-24T00:54:05.623Z,97921.47
2023-05-24T00:56:35.301Z,97920.88
2023-05-24T00:59:05.142Z,97907.00
2023-05-24T01:01:34.284Z,97908.59
2023-05-24T01:04:04.767Z,97911.34
2023-05-24T01:06:46.016Z,97903.38
2023-05-24T01:09:52.393Z,97912.19
2023-05-24T01:12:29.344Z,97938.91
2023-05-24T01:15:16.676Z,97940.81
2023-05-24T01:18:02.682Z,97959.69
2023-05-24T01:20:35.013Z,97980.28
2023-05-24T01:23:54.731Z,97984.28
2023-05-24T01:26:50.119Z,97957.34
2023-05-24T01:29:20.326Z,97953.69
2023-05-24T01:31:50.169Z,97960.41
2023-05-24T01:34:20.415Z,97963.13
2023-05-24T01:36:50.571Z,97943.50
2023-05-24T01:39:21.150Z,97937.72
2023-05-24T01:41:53.348Z,97969.22
2023-05-24T01:44:37.124Z,97958.03
2023-05-24T01:47:37.067Z,97979.78
2023-05-24T01:50:22.922Z,97979.56
2023-05-24T01:52:55.216Z,98005.25
2023-05-24T01:55:29.673Z,97999.66
2023-05-24T01:58:05.221Z,97988.19
2023-05-24T02:00:36.083Z,98014.84
2023-05-24T02:03:08.176Z,98012.31
2023-05-24T02:05:38.739Z,97989.72
2023-05-24T02:08:12.688Z,98000.16
2023-05-24T02:10:42.847Z,98012.72
2023-05-24T02:13:13.551Z,97995.97
2023-05-24T02:15:42.923Z,97998.69
2023-05-24T02:18:15.630Z,97990.53
2023-05-24T02:20:45.485Z,97993.72
2023-05-24T02:23:15.730Z,98017.06
2023-05-24T02:25:45.274Z,98005.72
2023-05-24T02:28:14.580Z,98024.31
2023-05-24T02:30:45.908Z,98029.78
2023-05-24T02:33:15.508Z,98027.72
2023-05-24T02:35:45.354Z,98026.75
2023-05-24T02:38:14.572Z,98036.03
2023-05-24T02:40:43.992Z,98025.63
2023-05-24T02:43:13.836Z,98029.56
2023-05-24T02:45:43.113Z,98035.13
2023-05-24T02:48:12.924Z,98032.31
2023-05-24T02:50:42.716Z,98047.81
2023-05-24T02:53:13.085Z,98032.56
2023-05-24T02:55:45.006Z,98045.72
2023-05-24T02:58:15.425Z,98042.31
2023-05-24T03:00:46.811Z,98045.56
2023-05-24T03:03:16.661Z,98035.38
2023-05-24T03:05:47.341Z,98051.78
2023-05-24T03:08:16.817Z,98065.16
2023-05-24T03:10:46.283Z,98069.66
2023-05-24T03:13:16.258Z,98066.47
2023-05-24T03:15:45.735Z,98062.50
2023-05-24T03:18:15.107Z,98070.19
2023-05-24T03:20:46.646Z,98077.03
2023-05-24T03:23:16.175Z,98079.00
2023-05-24T03:25:46.297Z,98073.47
2023-05-24T03:28:16.204Z,98060.19
2023-05-24T03:30:46.375Z,98061.09
2023-05-24T03:33:17.017Z,98068.56
2023-05-24T03:35:46.873Z,98066.88
2023-05-24T03:38:16.818Z,98069.63
2023-05-24T03:40:49.287Z,98077.53
2023-05-24T03:43:22.232Z,98074.09
2023-05-24T03:45:58.811Z,98067.31
2023-05-24T03:48:28.095Z,98077.91
2023-05-24T03:50:57.647Z,98079.06
2023-05-24T03:53:27.501Z,98077.34
2023-05-24T03:55:57.618Z,98077.91
2023-05-24T03:58:27.603Z,98077.06
2023-05-24T04:00:56.730Z,98076.81
2023-05-24T04:03:27.261Z,98086.69
2023-05-24T04:05:57.354Z,98089.56
2023-05-24T04:08:26.827Z,98095.22
2023-05-24T04:10:56.166Z,98092.56
2023-05-24T04:13:25.755Z,98098.56
2023-05-24T04:15:56.051Z,98106.63
2023-05-24T04:18:25.386Z,98102.41
2023-05-24T04:20:57.279Z,98112.22
2023-05-24T04:23:26.745Z,98110.91
2023-05-24T04:25:56.222Z,98113.09
2023-05-24T04:28:27.288Z,98124.16
2023-05-24T04:30:58.921Z,98126.47
2023-05-24T04:33:29.079Z,98117.66
2023-05-24T04:35:58.652Z,98114.72
2023-05-24T04:38:30.853Z,98112.28
2023-05-24T04:41:00.794Z,98110.88
2023-05-24T04:43:30.499Z,98103.75
2023-05-24T04:45:59.699Z,98113.78
2023-05-24T04:48:28.886Z,98111.09
2023-05-24T04:50:59.910Z,98114.03
2023-05-24T04:53:29.451Z,98124.09
2023-05-24T04:55:58.802Z,98130.84
2023-05-24T04:58:28.675Z,98124.53
2023-05-24T05:03:55.083Z,98135.16
2023-05-24T05:06:24.680Z,98136.38
2023-05-24T05:08:54.109Z,98139.56
2023-05-24T05:11:23.522Z,98132.63
2023-05-24T05:13:53.036Z,98130.41
2023-05-24T05:16:22.358Z,98130.38
2023-05-24T05:18:53.034Z,98136.34
2023-05-24T05:21:22.559Z,98142.50
2023-05-24T05:23:51.991Z,98146.47
2023-05-24T05:26:20.918Z,98152.69
2023-05-24T05:28:50.435Z,98146.25
2023-05-24T05:31:19.795Z,98151.34
2023-05-24T05:33:49.038Z,98147.06
2023-05-24T05:36:19.144Z,98151.66
2023-05-24T05:38:48.260Z,98151.81
2023-05-24T05:41:17.704Z,98144.88
2023-05-24T05:43:47.392Z,98139.25
2023-05-24T05:46:17.188Z,98129.38
2023-05-24T05:48:46.771Z,98123.03
2023-05-24T05:51:15.971Z,98115.97
2023-05-24T05:53:45.705Z,98120.03
2023-05-24T05:56:15.225Z,98115.53
2023-05-24T05:58:44.606Z,98116.22
2023-05-24T06:01:13.691Z,98123.47
2023-05-24T06:03:43.309Z,98105.28
2023-05-24T06:06:13.009Z,98105.00
2023-05-24T06:08:42.106Z,98104.25
2023-05-24T06:11:11.768Z,98098.44
2023-05-24T06:13:41.065Z,98101.78
2023-05-24T06:16:11.184Z,98104.25
2023-05-24T06:18:47.388Z,98106.88
2023-05-24T06:21:23.090Z,98113.31
2023-05-24T06:23:53.025Z,98107.81
2023-05-24T06:26:23.661Z,98110.44
2023-05-24T06:28:53.122Z,98104.44
2023-05-24T06:31:22.345Z,98115.13
2023-05-24T06:34:02.740Z,98095.88
2023-05-24T06:36:43.632Z,98098.00
2023-05-24T06:39:14.812Z,98109.94
2023-05-24T06:41:47.401Z,98099.91
2023-05-24T06:44:17.667Z,98105.97
2023-05-24T06:46:47.593Z,98100.84
2023-05-24T06:49:17.382Z,98095.78
2023-05-24T06:51:49.650Z,98096.19
2023-05-24T06:54:19.511Z,98093.00
2023-05-24T06:56:48.949Z,98086.41
2023-05-24T06:59:18.211Z,98094.34
2023-05-24T07:01:47.641Z,98088.59
2023-05-24T07:04:17.019Z,98081.69
2023-05-24T07:06:47.240Z,98072.28
2023-05-24T07:09:17.006Z,98079.56
2023-05-24T07:11:46.429Z,98063.03
2023-05-24T07:14:15.775Z,98063.16
2023-05-24T07:16:45.075Z,98062.28
2023-05-24T07:19:14.761Z,98056.63
2023-05-24T07:21:44.330Z,98043.06
2023-05-24T07:24:16.115Z,98045.25
2023-05-24T07:26:46.041Z,98032.41
2023-05-24T07:29:15.177Z,98039.41
2023-05-24T07:31:44.454Z,98030.50
2023-05-24T07:34:13.819Z,98031.53
2023-05-24T07:36:43.336Z,98023.38
2023-05-24T07:39:14.209Z,98021.50
2023-05-24T07:41:43.876Z,98004.16
2023-05-24T07:44:14.614Z,97992.72
2023-05-24T07:46:43.939Z,98000.34
2023-05-24T07:49:13.827Z,97988.03
2023-05-24T07:51:43.038Z,97985.94
2023-05-24T07:54:12.784Z,97981.59
2023-05-24T07:56:44.276Z,97986.19
2023-05-24T07:59:13.904Z,97989.06
2023-05-24T08:01:43.383Z,97989.50
2023-05-24T08:04:13.089Z,97981.81
2023-05-24T08:06:43.001Z,97979.94
2023-05-24T08:09:12.286Z,97976.75
2023-05-24T08:11:43.135Z,97974.06
2023-05-24T08:14:12.740Z,97967.00
2023-05-24T08:16:41.884Z,97965.44
2023-05-24T08:19:12.009Z,97970.16
2023-05-24T08:21:42.991Z,97964.88
2023-05-24T08:24:12.931Z,97968.13
2023-05-24T08:26:42.370Z,97957.41
2023-05-24T08:29:12.137Z,97954.44
2023-05-24T08:31:41.375Z,97952.00
2023-05-24T08:34:12.135Z,97939.22
2023-05-24T08:36:43.269Z,97940.72
2023-05-24T08:39:12.864Z,97931.47
2023-05-24T08:41:43.015Z,97935.91
2023-05-24T08:44:14.862Z,97933.34
2023-05-24T08:46:44.977Z,97924.56
2023-05-24T08:49:15.877Z,97926.69
2023-05-24T08:51:46.384Z,97916.88
2023-05-24T08:54:17.432Z,97917.31
2023-05-24T08:56:47.141Z,97908.44
2023-05-24T08:59:20.659Z,97910.19
2023-05-24T09:01:54.971Z,97900.00
2023-05-24T09:04:25.662Z,97891.16
2023-05-24T09:06:57.915Z,97901.34
2023-05-24T09:09:30.380Z,97894.94
2023-05-24T09:12:03.226Z,97889.88
2023-05-24T09:14:32.604Z,97885.38
2023-05-24T09:17:02.274Z,97877.16
2023-05-24T09:19:31.603Z,97872.16
2023-05-24T09:22:01.911Z,97872.19
2023-05-24T09:24:31.822Z,97868.75
2023-05-24T09:27:08.328Z,97856.34
2023-05-24T09:29:42.544Z,97852.22
2023-05-24T09:32:12.091Z,97853.75
2023-05-24T09:34:43.200Z,97847.81
2023-05-24T09:37:20.371Z,97840.44
2023-05-24T09:39:54.103Z,97831.06
2023-05-24T09:42:29.651Z,97828.13
2023-05-24T09:45:11.572Z,97830.28
2023-05-24T09:47:44.286Z,97821.63
2023-05-24T09:50:18.468Z,97810.38
2023-05-24T09:52:48.085Z,97811.50
2023-05-24T09:55:19.290Z,97808.53
2023-05-24T09:58:15.329Z,97803.53
2023-05-24T10:00:45.199Z,97804.63
2023-05-24T10:03:16.443Z,97796.06
2023-05-24T10:05:49.392Z,97796.63
2023-05-24T10:08:19.557Z,97795.19
2023-05-24T10:10:48.890Z,97785.16
2023-05-24T10:13:20.499Z,97783.31
2023-05-24T10:15:56.595Z,97780.75
2023-05-24T10:18:26.247Z,97780.44
2023-05-24T10:21:01.995Z,97776.91
2023-05-24T10:23:33.727Z,97771.72
2023-05-24T10:26:09.919Z,97778.72
2023-05-24T10:28:54.396Z,97776.63
2023-05-24T10:31:30.162Z,97768.69
2023-05-24T10:34:07.975Z,97763.69
2023-05-24T10:36:45.204Z,97762.59
2023-05-24T10:39:15.220Z,97767.78
2023-05-24T10:41:45.177Z,97752.63
2023-05-24T10:44:20.737Z,97754.78
2023-05-24T10:47:19.072Z,97746.59
2023-05-24T10:49:54.051Z,97744.34
2023-05-24T10:52:23.548Z,97743.00
2023-05-24T10:55:10.719Z,97739.63
2023-05-24T10:57:42.362Z,97747.69
2023-05-24T11:00:35.313Z,97744.63
2023-05-24T11:03:24.837Z,97729.75
2023-05-24T11:05:56.172Z,97728.44
2023-05-24T11:08:34.453Z,97732.56
2023-05-24T11:11:24.363Z,97733.75
2023-05-24T11:13:58.950Z,97729.97
2023-05-24T11:16:55.056Z,97730.41
2023-05-24T11:19:36.928Z,97720.94
2023-05-24T11:22:09.438Z,97720.81
2023-05-24T11:24:39.533Z,97712.03
2023-05-24T11:27:09.716Z,97717.41
2023-05-24T11:29:46.308Z,97711.06
2023-05-24T11:32:20.636Z,97710.56
2023-05-24T11:34:51.230Z,97708.56
2023-05-24T11:37:28.673Z,97700.34
2023-05-24T11:40:06.480Z,97691.34
2023-05-24T11:42:38.641Z,97688.66
2023-05-24T11:45:11.765Z,97687.84
2023-05-24T11:47:41.898Z,97690.66
2023-05-24T11:50:11.848Z,97688.66
2023-05-24T11:52:42.583Z,97685.50
2023-05-24T11:55:16.653Z,97677.19
2023-05-24T11:57:55.750Z,97678.03
2023-05-24T12:00:29.239Z,97667.78
2023-05-24T12:03:06.470Z,97670.03
2023-05-24T12:05:38.453Z,97671.31
2023-05-24T12:08:13.522Z,97657.06
2023-05-24T12:10:45.321Z,97657.22
2023-05-24T12:13:27.099Z,97654.13
2023-05-24T12:15:59.394Z,97657.31
2023-05-24T12:18:30.768Z,97654.25
2023-05-24T12:21:00.399Z,97660.53
2023-05-24T12:23:33.067Z,97651.50
2023-05-24T12:26:03.436Z,97652.66
2023-05-24T12:28:41.447Z,97661.41
2023-05-24T12:31:12.037Z,97657.38
2023-05-24T12:33:42.398Z,97662.44
2023-05-24T12:36:12.712Z,97660.50
2023-05-24T12:38:42.272Z,97662.09
2023-05-24T12:41:14.285Z,97668.09
2023-05-24T12:43:45.590Z,97670.13
2023-05-24T12:46:15.089Z,97668.09
2023-05-24T12:48:45.334Z,97668.84
2023-05-24T12:51:14.774Z,97673.59
2023-05-24T12:53:44.610Z,97674.75
2023-05-24T12:56:14.012Z,97672.78
2023-05-24T12:58:43.852Z,97678.97
2023-05-24T13:01:13.780Z,97684.03
2023-05-24T13:03:43.114Z,97688.84
2023-05-24T13:06:13.262Z,97696.28
2023-05-24T13:08:43.364Z,97697.09
2023-05-24T13:11:12.903Z,97712.34
2023-05-24T13:13:42.312Z,97712.22
2023-05-24T13:16:12.190Z,97719.16
2023-05-24T13:18:41.543Z,97729.03
2023-05-24T13:21:12.328Z,97730.59
2023-05-24T13:23:44.476Z,97743.88
2023-05-24T13:26:14.177Z,97741.25
2023-05-24T13:29:07.684Z,97741.25
2023-05-24T13:31:33.830Z,97746.69
2023-05-24T13:34:04.185Z,97747.78
2023-05-24T13:36:33.558Z,97757.53
2023-05-24T13:39:14.864Z,97754.66
2023-05-24T13:41:46.122Z,97753.50
2023-05-24T13:44:17.724Z,97759.00
2023-05-24T13:46:48.300Z,97755.09
2023-05-24T13:49:18.386Z,97751.19
2023-05-24T13:51:48.235Z,97757.31
2023-05-24T13:54:18.760Z,97772.84
2023-05-24T13:56:50.142Z,97772.44
2023-05-24T13:59:20.202Z,97773.31
2023-05-24T14:01:49.660Z,97783.28
2023-05-24T14:04:19.020Z,97776.56
2023-05-24T14:06:49.505Z,97783.78
2023-05-24T14:09:22.340Z,97795.66
2023-05-24T14:11:52.070Z,97789.53
2023-05-24T14:14:58.548Z,97790.56
2023-05-24T14:17:12.453Z,97797.88
2023-05-24T14:19:42.099Z,97794.31
2023-05-24T14:22:11.364Z,97782.59
2023-05-24T14:24:40.645Z,97792.50
2023-05-24T14:27:10.195Z,97806.19
2023-05-24T14:29:39.603Z,97807.75
2023-05-24T14:32:09.496Z,97795.94
2023-05-24T14:34:39.294Z,97805.94
2023-05-24T14:37:08.844Z,97793.28
2023-05-24T14:39:37.999Z,97797.47
2023-05-24T14:42:08.208Z,97791.19
2023-05-24T14:44:37.661Z,97805.53
2023-05-24T14:47:07.659Z,97818.38
2023-05-24T14:49:37.330Z,97828.72
2023-05-24T14:52:06.883Z,97841.34
2023-05-24T14:54:36.873Z,97850.53
2023-05-24T14:57:08.378Z,97864.06
2023-05-24T14:59:38.563Z,97880.44
2023-05-24T15:02:08.874Z,97858.03
2023-05-24T15:04:38.576Z,97843.03
2023-05-24T15:07:07.911Z,97839.41
2023-05-24T15:09:37.430Z,97833.50
2023-05-24T15:12:08.816Z,97819.88
2023-05-24T15:14:39.247Z,97828.56
2023-05-24T15:17:09.067Z,97848.94
2023-05-24T15:19:38.883Z,97868.25
2023-05-24T15:22:11.704Z,97867.69
2023-05-24T15:24:41.867Z,97846.16
2023-05-24T15:27:12.174Z,97833.22
2023-05-24T15:29:41.562Z,97828.19
2023-05-24T15:32:10.859Z,97827.03
2023-05-24T15:34:40.733Z,97825.44
2023-05-24T15:37:09.910Z,97837.94
2023-05-24T15:39:40.038Z,97835.69
2023-05-24T15:42:09.298Z,97828.66
2023-05-24T15:44:39.168Z,97833.94
2023-05-24T15:47:08.986Z,97848.00
2023-05-24T15:49:40.658Z,97835.72
2023-05-24T15:52:11.307Z,97842.59
2023-05-24T15:54:42.044Z,97856.78
2023-05-24T15:57:11.918Z,97852.81
2023-05-24T15:59:41.822Z,97882.09
2023-05-24T16:02:12.430Z,97899.06
2023-05-24T16:04:42.016Z,97914.88
2023-05-24T16:07:11.501Z,97908.75
2023-05-24T16:09:42.175Z,97927.56
2023-05-24T16:12:11.481Z,97961.94
2023-05-24T16:14:40.842Z,97982.16
2023-05-24T16:17:11.589Z,97969.31
2023-05-24T16:19:41.103Z,97973.84
2023-05-24T16:22:10.901Z,97979.44
2023-05-24T16:24:40.318Z,97977.38
2023-05-24T16:27:10.429Z,97966.63
2023-05-24T16:29:40.609Z,97977.94
2023-05-24T16:32:10.265Z,97995.72
2023-05-24T16:34:55.443Z,97998.97
2023-05-24T16:37:26.888Z,97997.84
2023-05-24T16:39:56.361Z,98005.03
2023-05-24T16:42:25.836Z,98011.94
2023-05-24T16:44:55.859Z,98015.56
2023-05-24T16:47:25.774Z,98015.09
2023-05-24T16:49:57.599Z,98009.88
2023-05-24T16:52:27.149Z,98025.06
2023-05-24T16:54:56.756Z,98035.13
2023-05-24T16:57:26.082Z,98016.19
2023-05-24T16:59:55.506Z,98013.09
2023-05-24T17:02:24.808Z,98002.81
2023-05-24T17:04:55.056Z,97991.53
2023-05-24T17:07:24.460Z,97992.28
2023-05-24T17:09:54.485Z,98003.19
2023-05-24T17:12:24.069Z,98010.88
2023-05-24T17:14:53.951Z,98019.47
2023-05-24T17:17:24.169Z,98016.75
2023-05-24T17:19:54.027Z,98010.06
2023-05-24T17:22:23.330Z,98022.94
2023-05-24T17:24:52.651Z,98023.03
2023-05-24T17:30:07.643Z,98008.78
2023-05-24T17:32:37.869Z,98009.34
2023-05-24T17:35:08.208Z,98005.91
2023-05-24T17:37:38.306Z,97996.13
2023-05-24T17:40:08.819Z,97996.31
2023-05-24T17:42:38.653Z,97986.91
2023-05-24T17:45:08.510Z,97990.09
2023-05-24T17:47:38.049Z,97978.63
2023-05-24T17:50:07.995Z,97992.75
2023-05-24T17:52:37.692Z,97988.44
2023-05-24T17:55:09.782Z,97986.69
2023-05-24T17:57:39.410Z,97998.38
2023-05-24T18:00:09.597Z,98002.00
2023-05-24T18:02:47.827Z,98005.16
2023-05-24T18:05:18.011Z,98008.34
2023-05-24T18:07:47.772Z,97996.09
2023-05-24T18:10:17.621Z,97993.84
2023-05-24T18:12:47.883Z,97985.53
2023-05-24T18:15:17.951Z,97976.97
2023-05-24T18:17:47.631Z,97974.75
2023-05-24T18:20:17.853Z,97977.84
2023-05-24T18:22:48.255Z,97972.47
2023-05-24T18:25:18.102Z,97985.53
2023-05-24T18:27:47.907Z,97979.75
2023-05-24T18:30:17.711Z,97980.56
2023-05-24T18:33:03.453Z,97979.75
2023-05-24T18:35:35.792Z,97975.72
2023-05-24T18:38:06.323Z,97970.56
2023-05-24T18:40:35.794Z,97964.00
2023-05-24T18:43:05.125Z,97972.13
2023-05-24T18:45:34.922Z,97962.50
2023-05-24T18:48:04.261Z,97952.88
2023-05-24T18:50:33.716Z,97958.16
2023-05-24T18:53:03.161Z,97955.50
2023-05-24T18:55:32.313Z,97967.97
2023-05-24T18:58:01.860Z,97970.41
2023-05-24T19:00:31.460Z,97955.69
2023-05-24T19:03:01.008Z,97963.13
2023-05-24T19:05:30.522Z,97966.28
2023-05-24T19:08:00.478Z,97956.47
2023-05-24T19:10:30.026Z,97959.16
2023-05-24T19:12:59.585Z,97959.03
2023-05-24T19:15:29.921Z,97954.69
2023-05-24T19:17:59.473Z,97963.34
2023-05-24T19:20:28.981Z,97958.59
2023-05-24T19:22:58.659Z,97957.19
2023-05-24T19:25:28.260Z,97958.22
2023-05-24T19:27:59.979Z,97960.13
2023-05-24T19:30:30.194Z,97966.16
2023-05-24T19:32:59.745Z,97960.09
2023-05-24T19:35:30.027Z,97964.34
2023-05-24T19:37:59.801Z,97966.38
2023-05-24T19:40:28.971Z,97976.25
2023-05-24T19:42:58.254Z,97971.03
2023-05-24T19:45:27.665Z,97977.47
2023-05-24T19:47:57.159Z,97979.59
2023-05-24T19:50:30.531Z,97980.41
2023-05-24T19:53:00.675Z,97988.75
2023-05-24T19:55:30.539Z,97978.72
2023-05-24T19:58:00.568Z,97993.56
2023-05-24T20:00:30.035Z,97986.97
2023-05-24T20:02:59.681Z,97988.75
2023-05-24T20:05:29.688Z,97985.13
2023-05-24T20:07:59.754Z,97989.03
2023-05-24T20:10:31.084Z,97981.94
2023-05-24T20:13:00.865Z,97989.84
2023-05-24T20:15:30.293Z,97997.06
2023-05-24T20:18:00.403Z,97983.97
2023-05-24T20:20:29.951Z,97983.78
2023-05-24T20:22:59.763Z,97991.22
2023-05-24T20:25:29.073Z,97999.41
2023-05-24T20:27:58.682Z,97998.53
2023-05-24T20:30:28.637Z,97991.94
2023-05-24T20:32:58.610Z,97984.63
2023-05-24T20:35:27.867Z,97992.00
2023-05-24T20:37:57.232Z,97998.69
2023-05-24T20:40:26.929Z,97989.56
2023-05-24T20:42:56.637Z,97982.78
2023-05-24T20:45:26.034Z,97975.34
2023-05-24T20:47:56.203Z,97979.75
2023-05-24T20:50:25.727Z,97965.28
2023-05-24T20:52:54.959Z,97973.75
2023-05-24T20:55:26.474Z,97976.75
2023-05-24T20:57:56.697Z,97984.75
2023-05-24T21:00:26.584Z,97977.03
2023-05-24T21:02:56.093Z,97968.94
2023-05-24T21:05:25.893Z,97973.81
2023-05-24T21:07:55.069Z,97970.16
2023-05-24T21:10:24.641Z,97968.09
2023-05-24T21:12:54.167Z,97976.75
2023-05-24T21:15:23.515Z,97984.41
2023-05-24T21:17:52.840Z,97991.63
2023-05-24T21:20:22.452Z,98003.47
2023-05-24T21:22:52.443Z,98002.19
2023-05-24T21:25:21.942Z,98001.44
2023-05-24T21:27:51.721Z,97997.25
2023-05-24T21:30:20.936Z,98003.63
2023-05-24T21:32:50.606Z,98002.31
2023-05-24T21:35:19.901Z,97996.06
2023-05-24T21:37:49.341Z,97993.28
2023-05-24T21:40:19.341Z,98001.38
2023-05-24T21:42:48.356Z,97999.69
2023-05-24T21:45:18.477Z,97999.63
2023-05-24T21:47:47.557Z,97993.19
2023-05-24T21:50:16.887Z,98007.53
2023-05-24T21:52:46.616Z,98002.63
2023-05-24T21:55:15.890Z,97994.50
2023-05-24T21:57:45.110Z,97995.03
2023-05-24T22:00:15.379Z,97996.06
2023-05-24T22:02:44.832Z,97998.16
2023-05-24T22:05:14.653Z,97990.97
2023-05-24T22:07:44.598Z,97987.06
2023-05-24T22:10:13.850Z,97997.94
2023-05-24T22:12:43.502Z,97997.06
2023-05-24T22:15:12.695Z,97996.91
2023-05-24T22:17:42.946Z,97996.91
2023-05-24T22:20:12.998Z,98001.75
2023-05-24T22:22:49.486Z,98000.16
2023-05-24T22:25:20.591Z,98007.41
2023-05-24T22:27:50.240Z,98007.72
2023-05-24T22:30:20.553Z,98010.66
2023-05-24T22:32:49.946Z,98019.56
2023-05-24T22:35:20.637Z,98022.91
2023-05-24T22:37:50.211Z,98035.53
2023-05-24T22:40:19.647Z,98037.56
2023-05-24T22:42:48.983Z,98042.91
2023-05-24T22:45:19.694Z,98046.19
2023-05-24T22:47:50.121Z,98054.00
2023-05-24T22:50:19.646Z,98046.34
2023-05-24T22:52:49.643Z,98048.31
2023-05-24T22:55:19.412Z,98046.28
2023-05-24T22:57:48.602Z,98048.44
2023-05-24T23:00:18.297Z,98052.69
2023-05-24T23:02:48.059Z,98054.09
2023-05-24T23:05:17.438Z,98051.69
2023-05-24T23:07:47.186Z,98048.53
2023-05-24T23:10:16.525Z,98050.88
2023-05-24T23:12:45.567Z,98058.84
2023-05-24T23:15:18.013Z,98060.06
2023-05-24T23:17:49.135Z,98069.22
2023-05-24T23:20:18.740Z,98072.50
2023-05-24T23:22:48.012Z,98064.06
2023-05-24T23:25:17.160Z,98070.88
2023-05-24T23:27:46.671Z,98062.50
2023-05-24T23:30:15.978Z,98061.13
2023-05-24T23:32:45.644Z,98068.44
2023-05-24T23:35:15.517Z,98071.66
2023-05-24T23:37:44.933Z,98077.19
2023-05-24T23:40:14.685Z,98076.03
2023-05-24T23:42:44.248Z,98078.78
2023-05-24T23:45:16.432Z,98084.63
2023-05-24T23:47:46.747Z,98084.06
2023-05-24T23:50:18.639Z,98082.19
2023-05-24T23:52:48.440Z,98081.19
2023-05-24T23:55:18.196Z,98094.56
2023-05-24T23:57:48.791Z,98084.25
